createdAt,value
2019-03-13T00:01:49.479Z,0.86
2019-03-13T00:04:16.362Z,0.81
2019-03-13T00:06:43.056Z,0.80
2019-03-13T00:09:10.362Z,0.75
2019-03-13T00:11:37.339Z,0.75
2019-03-13T00:14:04.044Z,0.76
2019-03-13T00:16:30.772Z,0.76
2019-03-13T00:18:57.560Z,0.75
2019-03-13T00:21:24.384Z,0.73
2019-03-13T00:23:51.121Z,0.73
2019-03-13T00:26:18.017Z,0.66
2019-03-13T00:28:55.569Z,0.58
2019-03-13T00:31:22.445Z,0.55
2019-03-13T00:33:49.154Z,0.48
2019-03-13T00:36:15.891Z,0.41
2019-03-13T00:38:42.764Z,0.39
2019-03-13T00:41:09.591Z,0.34
2019-03-13T00:43:36.375Z,0.31
2019-03-13T00:46:03.166Z,0.28
2019-03-13T00:48:29.951Z,0.20
2019-03-13T00:50:56.830Z,0.20
2019-03-13T00:53:23.579Z,0.18
2019-03-13T00:55:50.269Z,0.16
2019-03-13T00:58:18.858Z,0.12
2019-03-13T01:00:45.590Z,0.09
2019-03-13T01:03:12.318Z,0.08
2019-03-13T01:05:39.109Z,0.04
2019-03-13T01:08:05.806Z,0.03
2019-03-13T01:10:32.685Z,-0.03
2019-03-13T01:12:59.411Z,-0.11
2019-03-13T01:15:26.116Z,-0.04
2019-03-13T01:17:52.898Z,0.01
2019-03-13T01:20:19.592Z,-0.02
2019-03-13T01:22:46.326Z,-0.05
2019-03-13T01:25:13.099Z,-0.09
2019-03-13T01:27:39.823Z,-0.12
2019-03-13T01:30:11.279Z,-0.14
2019-03-13T01:32:38.482Z,-0.14
2019-03-13T01:35:05.194Z,-0.16
2019-03-13T01:37:31.895Z,-0.14
2019-03-13T01:39:58.658Z,-0.12
2019-03-13T01:42:25.369Z,-0.10
2019-03-13T01:44:52.208Z,-0.15
2019-03-13T01:47:18.931Z,-0.14
2019-03-13T01:49:45.659Z,-0.16
2019-03-13T01:52:12.516Z,-0.18
2019-03-13T01:54:39.360Z,-0.15
2019-03-13T01:57:06.071Z,-0.18
2019-03-13T01:59:32.865Z,-0.21
2019-03-13T02:01:59.607Z,-0.26
2019-03-13T02:04:26.341Z,-0.25
2019-03-13T02:06:53.084Z,-0.28
2019-03-13T02:09:19.799Z,-0.29
2019-03-13T02:11:46.689Z,-0.26
2019-03-13T02:14:13.420Z,-0.32
2019-03-13T02:16:40.165Z,-0.35
2019-03-13T02:19:06.900Z,-0.36
2019-03-13T02:21:33.619Z,-0.38
2019-03-13T02:24:00.519Z,-0.41
2019-03-13T02:26:27.257Z,-0.41
2019-03-13T02:28:53.969Z,-0.52
2019-03-13T02:31:20.954Z,-0.46
2019-03-13T02:33:47.722Z,-0.45
2019-03-13T02:36:14.409Z,-0.42
2019-03-13T02:38:41.318Z,-0.41
2019-03-13T02:41:08.006Z,-0.40
2019-03-13T02:43:34.876Z,-0.43
2019-03-13T02:46:01.636Z,-0.47
2019-03-13T02:48:28.384Z,-0.44
2019-03-13T02:50:55.270Z,-0.44
2019-03-13T02:53:21.968Z,-0.46
2019-03-13T02:55:48.696Z,-0.46
2019-03-13T02:58:15.499Z,-0.45
2019-03-13T03:00:42.229Z,-0.45
2019-03-13T03:03:08.943Z,-0.48
2019-03-13T03:05:35.694Z,-0.50
2019-03-13T03:08:02.448Z,-0.52
2019-03-13T03:10:29.291Z,-0.52
2019-03-13T03:12:57.761Z,-0.54
2019-03-13T03:15:24.573Z,-0.59
2019-03-13T03:17:51.373Z,-0.66
2019-03-13T03:20:20.565Z,-0.67
2019-03-13T03:22:47.373Z,-0.68
2019-03-13T03:25:15.965Z,-0.70
2019-03-13T03:27:42.811Z,-0.73
2019-03-13T03:30:23.231Z,-0.75
2019-03-13T03:32:50.096Z,-0.79
2019-03-13T03:35:16.796Z,-0.82
2019-03-13T03:37:45.074Z,-0.84
2019-03-13T03:40:21.872Z,-0.84
2019-03-13T03:42:46.374Z,-0.86
2019-03-13T03:45:13.143Z,-0.89
2019-03-13T03:47:39.875Z,-1.00
2019-03-13T03:50:14.832Z,-0.91
2019-03-13T03:52:41.688Z,-0.88
2019-03-13T03:55:10.382Z,-0.93
2019-03-13T03:57:37.229Z,-0.91
2019-03-13T04:00:09.369Z,-0.91
2019-03-13T04:02:37.284Z,-0.94
2019-03-13T04:05:06.608Z,-0.99
2019-03-13T04:07:33.314Z,-0.98
2019-03-13T04:10:00.468Z,-0.99
2019-03-13T04:12:27.184Z,-1.00
2019-03-13T04:14:54.000Z,-1.03
2019-03-13T04:17:20.746Z,-1.06
2019-03-13T04:19:47.452Z,-1.10
2019-03-13T04:22:14.350Z,-1.12
2019-03-13T04:24:41.067Z,-1.17
2019-03-13T04:27:07.797Z,-1.17
2019-03-13T04:29:34.574Z,-1.19
2019-03-13T04:32:01.278Z,-1.19
2019-03-13T04:34:28.045Z,-1.17
2019-03-13T04:36:54.915Z,-1.13
2019-03-13T04:39:21.641Z,-1.09
2019-03-13T04:41:48.341Z,-1.03
2019-03-13T04:44:15.204Z,-0.97
2019-03-13T04:46:41.943Z,-0.90
2019-03-13T04:49:08.663Z,-0.85
2019-03-13T04:51:35.562Z,-0.83
2019-03-13T04:54:02.235Z,-0.84
2019-03-13T04:56:28.996Z,-0.81
2019-03-13T04:58:55.883Z,-0.85
2019-03-13T05:01:22.612Z,-0.88
2019-03-13T05:03:49.345Z,-0.88
2019-03-13T05:06:18.619Z,-0.90
2019-03-13T05:08:45.800Z,-0.90
2019-03-13T05:11:12.688Z,-0.93
2019-03-13T05:13:39.479Z,-0.97
2019-03-13T05:16:06.229Z,-0.95
2019-03-13T05:18:32.925Z,-0.94
2019-03-13T05:20:59.795Z,-0.93
2019-03-13T05:23:26.542Z,-1.02
2019-03-13T05:25:53.274Z,-1.05
2019-03-13T05:28:20.049Z,-1.07
2019-03-13T05:30:46.799Z,-1.12
2019-03-13T05:33:13.699Z,-1.14
2019-03-13T05:35:40.494Z,-1.16
2019-03-13T05:38:07.211Z,-1.15
2019-03-13T05:40:34.072Z,-1.13
2019-03-13T05:43:00.809Z,-1.15
2019-03-13T05:45:27.534Z,-1.21
2019-03-13T05:47:54.421Z,-1.21
2019-03-13T05:50:21.123Z,-1.21
2019-03-13T05:52:47.884Z,-1.14
2019-03-13T05:55:14.774Z,-1.10
2019-03-13T05:57:41.519Z,-1.09
2019-03-13T06:00:12.657Z,-1.13
2019-03-13T06:02:39.321Z,-1.19
2019-03-13T06:05:07.443Z,-1.24
2019-03-13T06:07:34.241Z,-1.20
2019-03-13T06:10:01.089Z,-1.19
2019-03-13T06:12:27.842Z,-1.20
2019-03-13T06:14:54.740Z,-1.23
2019-03-13T06:17:21.444Z,-1.24
2019-03-13T06:20:13.710Z,-1.25
2019-03-13T06:22:40.400Z,-1.30
2019-03-13T06:25:09.544Z,-1.29
2019-03-13T06:27:36.302Z,-1.27
2019-03-13T06:30:12.803Z,-1.30
2019-03-13T06:32:39.680Z,-1.25
2019-03-13T06:35:08.375Z,-1.24
2019-03-13T06:37:35.104Z,-1.17
2019-03-13T06:40:02.356Z,-1.10
2019-03-13T06:42:29.090Z,-1.05
2019-03-13T06:44:55.972Z,-1.05
2019-03-13T06:47:25.072Z,-1.02
2019-03-13T06:49:51.235Z,-0.99
2019-03-13T06:52:18.037Z,-0.90
2019-03-13T06:54:44.779Z,-0.86
2019-03-13T06:57:11.485Z,-0.87
2019-03-13T06:59:38.359Z,-0.74
2019-03-13T07:02:05.116Z,-0.68
2019-03-13T07:04:31.865Z,-0.59
2019-03-13T07:06:58.719Z,-0.51
2019-03-13T07:09:25.487Z,-0.44
2019-03-13T07:11:52.229Z,-0.37
2019-03-13T07:14:18.970Z,-0.28
2019-03-13T07:16:45.708Z,-0.22
2019-03-13T07:19:12.460Z,-0.17
2019-03-13T07:21:39.201Z,-0.08
2019-03-13T07:24:06.066Z,-0.03
2019-03-13T07:26:32.794Z,0.17
2019-03-13T07:29:11.390Z,0.26
2019-03-13T07:31:28.135Z,0.44
2019-03-13T07:33:54.868Z,0.59
2019-03-13T07:36:25.444Z,0.75
2019-03-13T07:38:52.337Z,0.90
2019-03-13T07:41:19.077Z,0.99
2019-03-13T07:43:45.798Z,1.09
2019-03-13T07:46:12.779Z,1.15
2019-03-13T07:48:42.270Z,1.23
2019-03-13T07:51:09.003Z,1.25
2019-03-13T07:53:35.786Z,1.37
2019-03-13T07:56:02.535Z,1.44
2019-03-13T07:58:29.241Z,1.50
2019-03-13T08:00:56.128Z,1.64
2019-03-13T08:03:22.877Z,1.72
2019-03-13T08:05:49.595Z,1.85
2019-03-13T08:08:16.485Z,1.97
2019-03-13T08:10:43.207Z,2.03
2019-03-13T08:13:09.912Z,2.12
2019-03-13T08:15:36.780Z,2.26
2019-03-13T08:18:03.609Z,2.44
2019-03-13T08:20:30.354Z,2.58
2019-03-13T08:22:57.215Z,2.66
2019-03-13T08:25:23.922Z,2.83
2019-03-13T08:27:50.676Z,2.91
2019-03-13T08:30:20.270Z,3.07
2019-03-13T08:32:45.968Z,3.19
2019-03-13T08:35:12.699Z,3.28
2019-03-13T08:37:41.891Z,3.42
2019-03-13T08:40:08.253Z,3.44
2019-03-13T08:42:34.990Z,3.50
2019-03-13T08:45:21.489Z,3.51
2019-03-13T08:47:48.222Z,3.59
2019-03-13T08:50:15.030Z,3.65
2019-03-13T08:52:41.754Z,3.68
2019-03-13T08:55:08.658Z,3.72
2019-03-13T08:57:35.398Z,3.83
2019-03-13T09:00:07.030Z,3.91
2019-03-13T09:02:33.797Z,4.04
2019-03-13T09:05:00.633Z,4.10
2019-03-13T09:07:27.534Z,4.14
2019-03-13T09:09:54.288Z,4.20
2019-03-13T09:12:21.015Z,4.23
2019-03-13T09:14:47.814Z,4.36
2019-03-13T09:17:14.612Z,4.43
2019-03-13T09:19:41.435Z,4.45
2019-03-13T09:22:08.180Z,4.52
2019-03-13T09:24:34.922Z,4.57
2019-03-13T09:27:01.834Z,4.61
2019-03-13T09:29:28.726Z,4.66
2019-03-13T09:31:55.521Z,4.75
2019-03-13T09:34:22.403Z,4.79
2019-03-13T09:36:49.167Z,4.83
2019-03-13T09:39:15.963Z,4.91
2019-03-13T09:41:42.829Z,4.91
2019-03-13T09:44:09.575Z,4.97
2019-03-13T09:46:45.113Z,5.08
2019-03-13T09:49:14.606Z,5.19
2019-03-13T09:51:40.383Z,5.27
2019-03-13T09:54:07.184Z,5.35
2019-03-13T09:56:33.937Z,5.45
2019-03-13T09:59:00.680Z,5.44
2019-03-13T10:01:27.409Z,5.43
2019-03-13T10:03:54.274Z,5.44
2019-03-13T10:06:22.436Z,5.38
2019-03-13T10:08:49.490Z,5.48
2019-03-13T10:11:16.398Z,5.53
2019-03-13T10:13:43.238Z,5.52
2019-03-13T10:16:09.975Z,5.51
2019-03-13T10:18:36.783Z,5.49
2019-03-13T10:21:03.601Z,5.55
2019-03-13T10:23:30.331Z,5.54
2019-03-13T10:25:57.304Z,5.38
2019-03-13T10:28:24.069Z,5.35
2019-03-13T10:30:50.831Z,5.32
2019-03-13T10:33:17.642Z,5.39
2019-03-13T10:35:44.341Z,5.45
2019-03-13T10:38:14.136Z,5.48
2019-03-13T10:40:39.689Z,5.51
2019-03-13T10:43:06.415Z,5.53
2019-03-13T10:45:33.322Z,5.58
2019-03-13T10:48:00.072Z,5.61
2019-03-13T10:50:26.853Z,5.70
2019-03-13T10:52:53.724Z,5.77
2019-03-13T10:55:20.478Z,5.85
2019-03-13T10:57:47.238Z,5.88
2019-03-13T11:00:14.989Z,5.95
2019-03-13T11:02:41.756Z,6.02
2019-03-13T11:05:08.671Z,6.05
2019-03-13T11:07:35.478Z,6.13
2019-03-13T11:10:06.627Z,6.23
2019-03-13T11:12:33.483Z,6.34
2019-03-13T11:15:00.426Z,6.52
2019-03-13T11:17:27.148Z,6.61
2019-03-13T11:19:53.943Z,6.66
2019-03-13T11:22:20.705Z,6.75
2019-03-13T11:24:47.495Z,6.77
2019-03-13T11:27:14.220Z,6.74
2019-03-13T11:29:40.973Z,6.84
2019-03-13T11:32:07.880Z,6.93
2019-03-13T11:34:34.645Z,6.97
2019-03-13T11:37:01.401Z,6.95
2019-03-13T11:39:28.204Z,6.96
2019-03-13T11:41:54.975Z,6.95
2019-03-13T11:44:21.698Z,6.95
2019-03-13T11:46:48.585Z,6.99
2019-03-13T11:49:15.400Z,7.03
2019-03-13T11:51:42.112Z,7.06
2019-03-13T11:54:09.037Z,7.06
2019-03-13T11:56:35.733Z,7.07
2019-03-13T11:59:02.531Z,7.05
2019-03-13T12:01:30.912Z,6.99
2019-03-13T12:03:57.892Z,7.03
2019-03-13T12:06:24.651Z,6.99
2019-03-13T12:08:51.501Z,6.88
2019-03-13T12:11:18.240Z,6.85
2019-03-13T12:13:44.975Z,6.71
2019-03-13T12:16:11.877Z,6.73
2019-03-13T12:18:38.633Z,6.78
2019-03-13T12:21:05.389Z,6.87
2019-03-13T12:23:32.288Z,6.97
2019-03-13T12:25:59.021Z,7.02
2019-03-13T12:28:25.793Z,7.11
2019-03-13T12:30:52.543Z,7.13
2019-03-13T12:33:19.314Z,7.18
2019-03-13T12:35:46.099Z,7.20
2019-03-13T12:40:39.356Z,7.12
2019-03-13T12:43:06.143Z,6.97
2019-03-13T12:45:32.877Z,7.10
2019-03-13T12:47:59.660Z,7.25
2019-03-13T12:50:26.435Z,7.33
2019-03-13T12:52:53.260Z,7.37
2019-03-13T12:55:19.991Z,7.36
2019-03-13T12:57:46.743Z,7.38
2019-03-13T13:00:16.630Z,7.36
2019-03-13T13:02:43.364Z,7.36
2019-03-13T13:05:10.188Z,7.36
2019-03-13T13:07:37.099Z,7.31
2019-03-13T13:10:05.526Z,7.28
2019-03-13T13:12:32.298Z,7.25
2019-03-13T13:14:59.090Z,7.22
2019-03-13T13:17:25.849Z,7.24
2019-03-13T13:19:52.589Z,7.07
2019-03-13T13:22:19.411Z,6.99
2019-03-13T13:24:46.126Z,7.05
2019-03-13T13:27:12.880Z,7.04
2019-03-13T13:29:39.763Z,7.07
2019-03-13T13:32:06.530Z,6.94
2019-03-13T13:34:33.266Z,6.94
2019-03-13T13:37:00.053Z,6.96
2019-03-13T13:39:26.940Z,7.01
2019-03-13T13:41:53.740Z,6.97
2019-03-13T13:44:23.869Z,6.91
2019-03-13T13:46:50.611Z,6.80
2019-03-13T13:49:17.431Z,6.87
2019-03-13T13:51:44.156Z,6.98
2019-03-13T13:54:10.886Z,7.04
2019-03-13T13:56:37.689Z,7.06
2019-03-13T13:59:04.432Z,7.18
2019-03-13T14:01:31.243Z,7.27
2019-03-13T14:03:57.977Z,7.17
2019-03-13T14:06:24.720Z,7.26
2019-03-13T14:08:51.541Z,7.32
2019-03-13T14:11:18.280Z,7.26
2019-03-13T14:13:45.180Z,7.27
2019-03-13T14:16:11.975Z,7.35
2019-03-13T14:18:38.797Z,7.24
2019-03-13T14:21:05.721Z,7.28
2019-03-13T14:23:32.437Z,7.28
2019-03-13T14:25:59.195Z,7.30
2019-03-13T14:28:26.058Z,7.26
2019-03-13T14:30:52.799Z,7.17
2019-03-13T14:33:19.542Z,7.18
2019-03-13T14:35:46.638Z,7.14
2019-03-13T14:38:13.380Z,7.14
2019-03-13T14:40:40.276Z,7.07
2019-03-13T14:43:07.032Z,7.04
2019-03-13T14:45:33.806Z,6.99
2019-03-13T14:48:00.628Z,6.77
2019-03-13T14:50:27.370Z,6.78
2019-03-13T14:52:54.094Z,6.76
2019-03-13T14:55:22.377Z,6.72
2019-03-13T14:57:49.128Z,6.70
2019-03-13T15:00:23.537Z,6.79
2019-03-13T15:02:50.547Z,6.88
2019-03-13T15:05:17.261Z,6.78
2019-03-13T15:07:44.024Z,6.75
2019-03-13T15:10:20.934Z,6.72
2019-03-13T15:12:47.792Z,6.65
2019-03-13T15:15:23.194Z,6.49
2019-03-13T15:17:52.861Z,6.47
2019-03-13T15:20:27.573Z,6.32
2019-03-13T15:22:54.331Z,6.28
2019-03-13T15:25:21.053Z,6.31
2019-03-13T15:27:47.913Z,6.26
2019-03-13T15:30:26.826Z,6.37
2019-03-13T15:32:53.735Z,6.22
2019-03-13T15:35:20.476Z,6.14
2019-03-13T15:37:47.273Z,6.15
2019-03-13T15:40:15.887Z,6.14
2019-03-13T15:42:42.581Z,6.21
2019-03-13T15:45:27.055Z,5.93
2019-03-13T15:47:53.822Z,5.93
2019-03-13T15:50:20.547Z,5.96
2019-03-13T15:52:47.336Z,5.97
2019-03-13T15:55:17.898Z,5.86
2019-03-13T15:57:44.630Z,5.85
2019-03-13T16:00:18.742Z,5.87
2019-03-13T16:02:45.482Z,5.95
2019-03-13T16:05:12.494Z,5.79
2019-03-13T16:07:39.534Z,5.84
2019-03-13T16:10:13.356Z,5.91
2019-03-13T16:12:40.066Z,5.89
2019-03-13T16:15:26.621Z,5.86
2019-03-13T16:17:53.369Z,5.74
2019-03-13T16:20:20.112Z,5.77
2019-03-13T16:22:46.982Z,5.79
2019-03-13T16:25:13.808Z,5.70
2019-03-13T16:27:40.517Z,5.55
2019-03-13T16:30:22.806Z,5.57
2019-03-13T16:32:49.558Z,5.45
2019-03-13T16:35:16.709Z,5.39
2019-03-13T16:37:43.475Z,5.43
2019-03-13T16:40:18.344Z,5.45
2019-03-13T16:42:45.226Z,5.44
2019-03-13T16:45:15.851Z,5.44
2019-03-13T16:47:45.108Z,5.46
2019-03-13T16:50:22.338Z,5.43
2019-03-13T16:52:49.090Z,5.27
2019-03-13T16:55:18.357Z,5.21
2019-03-13T16:57:45.412Z,5.02
2019-03-13T17:00:23.301Z,5.02
2019-03-13T17:02:50.325Z,4.99
2019-03-13T17:05:17.680Z,4.88
2019-03-13T17:07:44.390Z,4.87
2019-03-13T17:10:14.876Z,4.75
2019-03-13T17:12:41.612Z,4.85
2019-03-13T17:15:12.781Z,4.65
2019-03-13T17:17:39.487Z,4.72
2019-03-13T17:20:11.065Z,4.67
2019-03-13T17:22:37.872Z,4.67
2019-03-13T17:25:09.609Z,4.50
2019-03-13T17:27:36.454Z,4.22
2019-03-13T17:30:08.324Z,4.08
2019-03-13T17:32:35.078Z,3.88
2019-03-13T17:35:02.233Z,3.76
2019-03-13T17:37:28.970Z,3.55
2019-03-13T17:39:55.736Z,3.54
2019-03-13T17:42:22.615Z,3.58
2019-03-13T17:44:49.330Z,3.57
2019-03-13T17:47:16.100Z,3.56
2019-03-13T17:49:42.909Z,3.47
2019-03-13T17:52:09.647Z,3.46
2019-03-13T17:54:36.352Z,3.47
2019-03-13T17:57:03.317Z,3.40
2019-03-13T17:59:30.045Z,3.40
2019-03-13T18:01:56.764Z,3.37
2019-03-13T18:04:23.576Z,3.38
2019-03-13T18:06:50.326Z,3.33
2019-03-13T18:09:17.248Z,3.28
2019-03-13T18:11:44.072Z,3.23
2019-03-13T18:14:10.789Z,3.18
2019-03-13T18:16:37.625Z,3.16
2019-03-13T18:19:04.367Z,3.12
2019-03-13T18:21:31.108Z,3.04
2019-03-13T18:23:58.009Z,2.97
2019-03-13T18:26:24.732Z,2.90
2019-03-13T18:28:51.484Z,2.88
2019-03-13T18:31:18.343Z,2.82
2019-03-13T18:33:45.269Z,2.74
2019-03-13T18:36:14.227Z,2.63
2019-03-13T18:38:40.626Z,2.54
2019-03-13T18:41:07.372Z,2.47
2019-03-13T18:43:34.222Z,2.39
2019-03-13T18:46:00.986Z,2.35
2019-03-13T18:48:28.123Z,2.28
2019-03-13T18:50:54.867Z,2.21
2019-03-13T18:53:21.571Z,2.16
2019-03-13T18:55:48.355Z,2.13
2019-03-13T18:58:15.175Z,2.12
2019-03-13T19:00:41.936Z,2.11
2019-03-13T19:03:09.079Z,2.10
2019-03-13T19:05:37.112Z,2.08
2019-03-13T19:08:04.759Z,2.05
2019-03-13T19:10:32.606Z,2.00
2019-03-13T19:12:59.468Z,1.97
2019-03-13T19:15:27.886Z,1.94
2019-03-13T19:17:54.820Z,1.96
2019-03-13T19:20:23.653Z,1.91
2019-03-13T19:22:51.523Z,1.88
2019-03-13T19:25:18.345Z,1.83
2019-03-13T19:27:45.470Z,1.79
2019-03-13T19:30:26.706Z,1.76
2019-03-13T19:32:53.851Z,1.73
2019-03-13T19:35:21.225Z,1.66
2019-03-13T19:37:48.374Z,1.63
2019-03-13T19:40:21.946Z,1.56
2019-03-13T19:42:49.166Z,1.45
2019-03-13T19:45:26.838Z,1.38
2019-03-13T19:47:54.014Z,1.34
2019-03-13T19:50:21.250Z,1.31
2019-03-13T19:52:48.424Z,1.31
2019-03-13T19:55:15.558Z,1.30
2019-03-13T19:57:42.783Z,1.25
2019-03-13T20:00:23.699Z,1.22
2019-03-13T20:03:04.017Z,1.23
2019-03-13T20:05:44.821Z,1.19
2019-03-13T20:08:01.871Z,1.07
2019-03-13T20:10:29.767Z,1.03
2019-03-13T20:12:57.218Z,1.01
2019-03-13T20:15:29.763Z,1.01
2019-03-13T20:17:57.012Z,1.00
2019-03-13T20:20:24.139Z,1.00
2019-03-13T20:22:56.975Z,1.01
2019-03-13T20:25:23.771Z,1.01
2019-03-13T20:27:50.977Z,0.94
2019-03-13T20:30:20.492Z,0.90
2019-03-13T20:32:47.781Z,0.90
2019-03-13T20:35:14.912Z,0.90
2019-03-13T20:37:42.081Z,0.92
2019-03-13T20:40:16.524Z,0.98
2019-03-13T20:42:43.537Z,1.03
2019-03-13T20:45:15.141Z,0.96
2019-03-13T20:47:42.270Z,0.91
2019-03-13T20:50:10.617Z,0.85
2019-03-13T20:52:37.807Z,0.84
2019-03-13T20:55:09.501Z,0.79
2019-03-13T20:57:36.673Z,0.78
2019-03-13T21:00:08.946Z,0.77
2019-03-13T21:02:36.124Z,0.71
2019-03-13T21:05:04.255Z,0.64
2019-03-13T21:07:31.421Z,0.60
2019-03-13T21:09:58.554Z,0.57
2019-03-13T21:12:25.732Z,0.52
2019-03-13T21:14:52.875Z,0.46
2019-03-13T21:17:20.059Z,0.43
2019-03-13T21:19:47.230Z,0.43
2019-03-13T21:22:14.394Z,0.39
2019-03-13T21:24:41.545Z,0.38
2019-03-13T21:27:08.714Z,0.37
2019-03-13T21:29:35.935Z,0.38
2019-03-13T21:32:03.271Z,0.28
2019-03-13T21:34:30.286Z,0.26
2019-03-13T21:36:57.198Z,0.29
2019-03-13T21:39:24.041Z,0.29
2019-03-13T21:41:50.828Z,0.29
2019-03-13T21:44:17.609Z,0.35
2019-03-13T21:46:44.332Z,0.31
2019-03-13T21:49:11.107Z,0.30
2019-03-13T21:51:37.854Z,0.26
2019-03-13T21:54:04.690Z,0.24
2019-03-13T21:56:31.391Z,0.24
2019-03-13T21:58:58.168Z,0.28
2019-03-13T22:01:24.919Z,0.29
2019-03-13T22:03:51.651Z,0.29
2019-03-13T22:06:27.973Z,0.25
2019-03-13T22:08:46.968Z,0.27
2019-03-13T22:11:13.718Z,0.27
2019-03-13T22:14:00.205Z,0.25
2019-03-13T22:16:26.956Z,0.24
2019-03-13T22:18:53.675Z,0.21
2019-03-13T22:21:20.453Z,0.18
2019-03-13T22:23:47.196Z,0.19
2019-03-13T22:26:13.965Z,0.15
2019-03-13T22:28:40.695Z,0.12
2019-03-13T22:31:07.765Z,0.07
2019-03-13T22:33:34.500Z,0.00
2019-03-13T22:36:01.200Z,-0.09
2019-03-13T22:38:28.011Z,-0.13
2019-03-13T22:40:54.721Z,-0.16
2019-03-13T22:43:21.492Z,-0.15
2019-03-13T22:45:48.273Z,-0.10
2019-03-13T22:48:15.052Z,-0.14
2019-03-13T22:50:41.797Z,-0.16
2019-03-13T22:53:08.569Z,-0.19
2019-03-13T22:55:35.399Z,-0.24
2019-03-13T22:58:02.164Z,-0.31
2019-03-13T23:00:36.931Z,-0.31
2019-03-13T23:03:04.015Z,-0.34
2019-03-13T23:05:30.746Z,-0.38
2019-03-13T23:07:57.484Z,-0.45
2019-03-13T23:10:32.317Z,-0.49
2019-03-13T23:12:59.162Z,-0.54
2019-03-13T23:15:26.038Z,-0.55
2019-03-13T23:17:52.792Z,-0.56
2019-03-13T23:20:19.569Z,-0.58
2019-03-13T23:22:46.271Z,-0.62
2019-03-13T23:25:13.025Z,-0.65
2019-03-13T23:27:39.731Z,-0.66
2019-03-13T23:30:09.240Z,-0.66
2019-03-13T23:32:36.146Z,-0.65
2019-03-13T23:35:04.624Z,-0.66
2019-03-13T23:37:31.429Z,-0.64
2019-03-13T23:39:58.167Z,-0.66
2019-03-13T23:42:24.922Z,-0.70
2019-03-13T23:44:54.611Z,-0.70
2019-03-13T23:47:20.249Z,-0.75
2019-03-13T23:49:46.976Z,-0.76
2019-03-13T23:52:13.749Z,-0.78
2019-03-13T23:54:40.470Z,-0.83
2019-03-13T23:57:07.393Z,-0.82
2019-03-13T23:59:34.133Z,-0.81
